Terminal Aerodrome Forecast
Issued by NWS Charleston, WV

Current Version | Previous Version | Graphics & Text | Print | Product List | Glossary On
Versions: 1 2 3 4 5 6 7 8 9 10 11 12 13 14 15 16 17 18 19 20 21 22 23 24 25 26 27 28
000
FTUS41 KRLX 240900 AAA
TAFPKB
TAF AMD
KPKB 240903Z 2409/2506 00000KT 6SM BR OVC010
     FM241400 VRB03KT P6SM BKN015
     FM241700 VRB03KT P6SM BKN025
     FM242000 VRB03KT P6SM SCT035 OVC060
     FM250200 VRB03KT 5SM -SHRA BR OVC040=

USA.gov is the U.S. government's official web portal to all federal, state and local government web resources and services.